Terminal Aerodrome Forecast
Issued by NWS Sterling, VA

Home | Current Version | Previous Version | Text Only | Print | Product List | Glossary On
Versions: 1 2 3 4 5 6 7 8 9 10 11 12 13 14 15 16 17 18 19 20 21 22
639
FTUS41 KLWX 240540
TAFDCA
TAF
KDCA 240540Z 2406/2512 27009KT P6SM SKC
     FM241800 30011KT P6SM BKN040
     FM250400 32007KT P6SM BKN060
     FM250900 32007KT P6SM SCT130=

USA.gov is the U.S. government's official web portal to all federal, state and local government web resources and services.